sensor_id;sensor_type;location;lat;lon;timestamp;P1;durP1;ratioP1;P2;durP2;ratioP2
18657;SDS011;9458;50.942;5.074;2022-10-26T00:01:09;7.18;;;5.30;;
18657;SDS011;9458;50.942;5.074;2022-10-26T00:03:40;9.38;;;5.60;;
18657;SDS011;9458;50.942;5.074;2022-10-26T00:06:12;8.70;;;5.53;;
18657;SDS011;9458;50.942;5.074;2022-10-26T00:08:41;9.25;;;5.75;;
18657;SDS011;9458;50.942;5.074;2022-10-26T00:11:10;9.23;;;5.60;;
18657;SDS011;9458;50.942;5.074;2022-10-26T00:13:38;8.48;;;5.88;;
18657;SDS011;9458;50.942;5.074;2022-10-26T00:16:06;6.70;;;5.38;;
18657;SDS011;9458;50.942;5.074;2022-10-26T00:18:35;8.48;;;5.60;;
18657;SDS011;9458;50.942;5.074;2022-10-26T00:21:06;9.15;;;5.68;;
18657;SDS011;9458;50.942;5.074;2022-10-26T00:23:37;6.85;;;5.43;;
18657;SDS011;9458;50.942;5.074;2022-10-26T00:26:10;8.68;;;5.60;;
18657;SDS011;9458;50.942;5.074;2022-10-26T00:28:37;8.30;;;5.13;;
18657;SDS011;9458;50.942;5.074;2022-10-26T00:31:13;6.38;;;5.30;;
18657;SDS011;9458;50.942;5.074;2022-10-26T00:33:42;5.95;;;4.65;;
18657;SDS011;9458;50.942;5.074;2022-10-26T00:36:12;8.43;;;5.20;;
18657;SDS011;9458;50.942;5.074;2022-10-26T00:38:41;9.85;;;5.78;;
18657;SDS011;9458;50.942;5.074;2022-10-26T00:41:12;8.55;;;4.93;;
18657;SDS011;9458;50.942;5.074;2022-10-26T00:43:40;7.95;;;4.88;;
18657;SDS011;9458;50.942;5.074;2022-10-26T00:46:10;8.07;;;4.85;;
18657;SDS011;9458;50.942;5.074;2022-10-26T00:48:40;13.10;;;5.18;;
18657;SDS011;9458;50.942;5.074;2022-10-26T00:51:14;7.00;;;4.80;;
18657;SDS011;9458;50.942;5.074;2022-10-26T00:53:46;9.32;;;5.38;;
18657;SDS011;9458;50.942;5.074;2022-10-26T00:56:14;9.63;;;4.75;;
18657;SDS011;9458;50.942;5.074;2022-10-26T00:58:44;8.52;;;4.93;;
18657;SDS011;9458;50.942;5.074;2022-10-26T01:01:12;6.70;;;4.97;;
18657;SDS011;9458;50.942;5.074;2022-10-26T01:03:40;9.27;;;4.60;;
18657;SDS011;9458;50.942;5.074;2022-10-26T01:06:08;7.85;;;4.78;;
18657;SDS011;9458;50.942;5.074;2022-10-26T01:08:40;6.82;;;5.28;;
18657;SDS011;9458;50.942;5.074;2022-10-26T01:11:09;9.52;;;4.90;;
18657;SDS011;9458;50.942;5.074;2022-10-26T01:13:38;7.50;;;4.60;;
18657;SDS011;9458;50.942;5.074;2022-10-26T01:16:15;6.82;;;4.72;;
18657;SDS011;9458;50.942;5.074;2022-10-26T01:18:57;6.68;;;4.90;;
18657;SDS011;9458;50.942;5.074;2022-10-26T01:21:39;8.52;;;4.40;;
18657;SDS011;9458;50.942;5.074;2022-10-26T01:24:37;4.80;;;4.00;;
18657;SDS011;9458;50.942;5.074;2022-10-26T01:27:23;9.38;;;5.03;;
18657;SDS011;9458;50.942;5.074;2022-10-26T01:32:46;6.93;;;4.30;;
18657;SDS011;9458;50.942;5.074;2022-10-26T01:35:22;7.38;;;4.20;;
18657;SDS011;9458;50.942;5.074;2022-10-26T01:37:56;5.97;;;3.90;;
18657;SDS011;9458;50.942;5.074;2022-10-26T01:40:31;8.63;;;4.32;;
18657;SDS011;9458;50.942;5.074;2022-10-26T01:43:04;7.25;;;4.30;;
18657;SDS011;9458;50.942;5.074;2022-10-26T01:45:39;5.85;;;4.32;;
18657;SDS011;9458;50.942;5.074;2022-10-26T01:48:10;8.05;;;4.65;;
18657;SDS011;9458;50.942;5.074;2022-10-26T01:50:40;8.23;;;3.95;;
18657;SDS011;9458;50.942;5.074;2022-10-26T01:53:10;6.60;;;4.20;;
18657;SDS011;9458;50.942;5.074;2022-10-26T01:55:41;8.73;;;4.00;;
18657;SDS011;9458;50.942;5.074;2022-10-26T01:58:14;7.35;;;3.90;;
18657;SDS011;9458;50.942;5.074;2022-10-26T02:01:06;8.50;;;3.80;;
18657;SDS011;9458;50.942;5.074;2022-10-26T02:03:48;7.80;;;4.32;;
18657;SDS011;9458;50.942;5.074;2022-10-26T02:06:24;9.25;;;4.07;;
18657;SDS011;9458;50.942;5.074;2022-10-26T02:09:06;14.68;;;4.50;;
18657;SDS011;9458;50.942;5.074;2022-10-26T02:11:43;5.63;;;3.58;;
18657;SDS011;9458;50.942;5.074;2022-10-26T02:14:14;5.65;;;3.63;;
18657;SDS011;9458;50.942;5.074;2022-10-26T02:16:50;8.82;;;3.95;;
18657;SDS011;9458;50.942;5.074;2022-10-26T02:19:31;6.28;;;3.60;;
18657;SDS011;9458;50.942;5.074;2022-10-26T02:22:03;6.18;;;4.03;;
18657;SDS011;9458;50.942;5.074;2022-10-26T02:24:35;6.75;;;3.83;;
18657;SDS011;9458;50.942;5.074;2022-10-26T02:27:04;11.88;;;4.32;;
18657;SDS011;9458;50.942;5.074;2022-10-26T02:29:34;6.43;;;3.70;;
18657;SDS011;9458;50.942;5.074;2022-10-26T02:32:04;6.38;;;3.85;;
18657;SDS011;9458;50.942;5.074;2022-10-26T02:34:34;11.10;;;3.95;;
18657;SDS011;9458;50.942;5.074;2022-10-26T02:37:04;7.63;;;3.72;;
18657;SDS011;9458;50.942;5.074;2022-10-26T02:39:34;5.03;;;3.63;;
18657;SDS011;9458;50.942;5.074;2022-10-26T02:42:04;7.00;;;3.72;;
18657;SDS011;9458;50.942;5.074;2022-10-26T02:44:34;6.47;;;3.97;;
18657;SDS011;9458;50.942;5.074;2022-10-26T02:47:07;10.88;;;4.03;;
18657;SDS011;9458;50.942;5.074;2022-10-26T02:49:35;4.45;;;3.88;;
18657;SDS011;9458;50.942;5.074;2022-10-26T02:52:03;5.30;;;3.60;;
18657;SDS011;9458;50.942;5.074;2022-10-26T02:54:41;5.25;;;3.45;;
18657;SDS011;9458;50.942;5.074;2022-10-26T02:57:18;6.30;;;3.80;;
18657;SDS011;9458;50.942;5.074;2022-10-26T02:59:49;8.70;;;3.83;;
18657;SDS011;9458;50.942;5.074;2022-10-26T03:02:19;6.18;;;4.15;;
18657;SDS011;9458;50.942;5.074;2022-10-26T03:05:03;10.30;;;4.10;;
18657;SDS011;9458;50.942;5.074;2022-10-26T03:07:44;8.32;;;4.20;;
18657;SDS011;9458;50.942;5.074;2022-10-26T03:10:12;5.40;;;4.13;;
18657;SDS011;9458;50.942;5.074;2022-10-26T03:12:42;7.20;;;3.25;;
18657;SDS011;9458;50.942;5.074;2022-10-26T03:15:10;5.20;;;3.63;;
18657;SDS011;9458;50.942;5.074;2022-10-26T03:17:39;9.55;;;4.43;;
18657;SDS011;9458;50.942;5.074;2022-10-26T03:20:07;5.70;;;3.72;;
18657;SDS011;9458;50.942;5.074;2022-10-26T03:22:35;6.55;;;3.90;;
18657;SDS011;9458;50.942;5.074;2022-10-26T03:25:02;5.43;;;3.80;;
18657;SDS011;9458;50.942;5.074;2022-10-26T03:27:30;6.22;;;3.55;;
18657;SDS011;9458;50.942;5.074;2022-10-26T03:29:59;6.75;;;4.13;;
18657;SDS011;9458;50.942;5.074;2022-10-26T03:32:26;7.68;;;3.70;;
18657;SDS011;9458;50.942;5.074;2022-10-26T03:34:55;5.72;;;3.50;;
18657;SDS011;9458;50.942;5.074;2022-10-26T03:37:23;5.15;;;4.07;;
18657;SDS011;9458;50.942;5.074;2022-10-26T03:39:50;10.80;;;3.40;;
18657;SDS011;9458;50.942;5.074;2022-10-26T03:42:18;4.68;;;3.42;;
18657;SDS011;9458;50.942;5.074;2022-10-26T03:44:45;4.78;;;3.53;;
18657;SDS011;9458;50.942;5.074;2022-10-26T03:47:12;7.05;;;3.65;;
18657;SDS011;9458;50.942;5.074;2022-10-26T03:49:40;6.78;;;3.72;;
18657;SDS011;9458;50.942;5.074;2022-10-26T03:52:09;4.43;;;3.67;;
18657;SDS011;9458;50.942;5.074;2022-10-26T03:54:36;6.07;;;3.70;;
18657;SDS011;9458;50.942;5.074;2022-10-26T03:57:04;7.82;;;4.20;;
18657;SDS011;9458;50.942;5.074;2022-10-26T03:59:31;5.32;;;4.03;;
18657;SDS011;9458;50.942;5.074;2022-10-26T04:01:59;7.35;;;3.35;;
18657;SDS011;9458;50.942;5.074;2022-10-26T04:04:26;8.32;;;3.67;;
18657;SDS011;9458;50.942;5.074;2022-10-26T04:06:54;9.25;;;4.20;;
18657;SDS011;9458;50.942;5.074;2022-10-26T04:09:24;10.95;;;4.10;;
18657;SDS011;9458;50.942;5.074;2022-10-26T04:11:51;6.13;;;4.00;;
18657;SDS011;9458;50.942;5.074;2022-10-26T04:14:19;5.75;;;3.72;;
18657;SDS011;9458;50.942;5.074;2022-10-26T04:16:47;7.90;;;3.92;;
18657;SDS011;9458;50.942;5.074;2022-10-26T04:19:14;5.78;;;3.50;;
18657;SDS011;9458;50.942;5.074;2022-10-26T04:21:41;6.18;;;3.70;;
18657;SDS011;9458;50.942;5.074;2022-10-26T04:24:09;6.93;;;3.75;;
18657;SDS011;9458;50.942;5.074;2022-10-26T04:26:38;4.53;;;3.22;;
18657;SDS011;9458;50.942;5.074;2022-10-26T04:29:06;4.72;;;3.08;;
18657;SDS011;9458;50.942;5.074;2022-10-26T04:31:33;5.32;;;3.55;;
18657;SDS011;9458;50.942;5.074;2022-10-26T04:34:01;9.40;;;3.88;;
18657;SDS011;9458;50.942;5.074;2022-10-26T04:36:28;3.80;;;3.33;;
18657;SDS011;9458;50.942;5.074;2022-10-26T04:38:59;4.90;;;3.53;;
18657;SDS011;9458;50.942;5.074;2022-10-26T04:41:26;4.07;;;3.30;;
18657;SDS011;9458;50.942;5.074;2022-10-26T04:43:55;6.60;;;2.70;;
18657;SDS011;9458;50.942;5.074;2022-10-26T04:46:23;4.32;;;2.50;;
18657;SDS011;9458;50.942;5.074;2022-10-26T04:48:51;4.43;;;2.65;;
18657;SDS011;9458;50.942;5.074;2022-10-26T04:51:18;7.43;;;2.67;;
18657;SDS011;9458;50.942;5.074;2022-10-26T04:53:45;2.78;;;2.35;;
18657;SDS011;9458;50.942;5.074;2022-10-26T04:56:13;3.95;;;2.25;;
18657;SDS011;9458;50.942;5.074;2022-10-26T04:58:40;3.42;;;2.28;;
18657;SDS011;9458;50.942;5.074;2022-10-26T05:01:09;1.60;;;1.45;;
18657;SDS011;9458;50.942;5.074;2022-10-26T05:03:37;3.40;;;1.80;;
18657;SDS011;9458;50.942;5.074;2022-10-26T05:06:05;2.55;;;1.83;;
18657;SDS011;9458;50.942;5.074;2022-10-26T05:08:33;4.72;;;2.00;;
18657;SDS011;9458;50.942;5.074;2022-10-26T05:11:00;4.88;;;2.00;;
18657;SDS011;9458;50.942;5.074;2022-10-26T05:13:27;3.75;;;2.10;;
18657;SDS011;9458;50.942;5.074;2022-10-26T05:15:55;4.40;;;1.80;;
18657;SDS011;9458;50.942;5.074;2022-10-26T05:18:24;4.38;;;1.73;;
18657;SDS011;9458;50.942;5.074;2022-10-26T05:20:52;5.15;;;1.95;;
18657;SDS011;9458;50.942;5.074;2022-10-26T05:23:20;5.20;;;2.03;;
18657;SDS011;9458;50.942;5.074;2022-10-26T05:25:48;3.00;;;1.73;;
18657;SDS011;9458;50.942;5.074;2022-10-26T05:28:15;4.03;;;1.98;;
18657;SDS011;9458;50.942;5.074;2022-10-26T05:30:44;3.78;;;1.80;;
18657;SDS011;9458;50.942;5.074;2022-10-26T05:33:12;4.25;;;1.73;;
18657;SDS011;9458;50.942;5.074;2022-10-26T05:35:42;2.53;;;1.88;;
18657;SDS011;9458;50.942;5.074;2022-10-26T05:38:10;3.00;;;1.73;;
18657;SDS011;9458;50.942;5.074;2022-10-26T05:40:45;3.15;;;1.88;;
18657;SDS011;9458;50.942;5.074;2022-10-26T05:43:13;5.50;;;1.77;;
18657;SDS011;9458;50.942;5.074;2022-10-26T05:45:40;3.10;;;1.63;;
18657;SDS011;9458;50.942;5.074;2022-10-26T05:48:08;6.68;;;2.05;;
18657;SDS011;9458;50.942;5.074;2022-10-26T05:50:36;4.30;;;1.63;;
18657;SDS011;9458;50.942;5.074;2022-10-26T05:53:05;3.17;;;2.33;;
18657;SDS011;9458;50.942;5.074;2022-10-26T05:55:32;3.28;;;2.15;;
18657;SDS011;9458;50.942;5.074;2022-10-26T05:58:01;4.50;;;1.70;;
18657;SDS011;9458;50.942;5.074;2022-10-26T06:00:30;4.40;;;2.28;;
18657;SDS011;9458;50.942;5.074;2022-10-26T06:03:08;4.95;;;2.05;;
18657;SDS011;9458;50.942;5.074;2022-10-26T06:05:44;4.45;;;1.85;;
18657;SDS011;9458;50.942;5.074;2022-10-26T06:08:21;6.22;;;2.03;;
18657;SDS011;9458;50.942;5.074;2022-10-26T06:10:50;2.97;;;1.90;;
18657;SDS011;9458;50.942;5.074;2022-10-26T06:13:19;6.55;;;2.05;;
18657;SDS011;9458;50.942;5.074;2022-10-26T06:15:50;3.90;;;2.10;;
18657;SDS011;9458;50.942;5.074;2022-10-26T06:18:35;3.72;;;1.85;;
18657;SDS011;9458;50.942;5.074;2022-10-26T06:21:18;2.78;;;1.90;;
18657;SDS011;9458;50.942;5.074;2022-10-26T06:24:01;3.72;;;1.90;;
18657;SDS011;9458;50.942;5.074;2022-10-26T06:26:35;3.20;;;2.40;;
18657;SDS011;9458;50.942;5.074;2022-10-26T06:29:11;4.28;;;1.98;;
18657;SDS011;9458;50.942;5.074;2022-10-26T06:31:45;3.88;;;2.00;;
18657;SDS011;9458;50.942;5.074;2022-10-26T06:34:14;4.75;;;2.20;;
18657;SDS011;9458;50.942;5.074;2022-10-26T06:36:46;3.78;;;1.83;;
18657;SDS011;9458;50.942;5.074;2022-10-26T06:39:18;2.70;;;1.85;;
18657;SDS011;9458;50.942;5.074;2022-10-26T06:41:48;3.72;;;2.22;;
18657;SDS011;9458;50.942;5.074;2022-10-26T06:44:19;4.72;;;2.20;;
18657;SDS011;9458;50.942;5.074;2022-10-26T06:46:52;5.75;;;2.40;;
18657;SDS011;9458;50.942;5.074;2022-10-26T06:49:28;7.75;;;3.03;;
18657;SDS011;9458;50.942;5.074;2022-10-26T06:51:59;2.92;;;2.10;;
18657;SDS011;9458;50.942;5.074;2022-10-26T06:54:35;5.45;;;2.10;;
18657;SDS011;9458;50.942;5.074;2022-10-26T06:57:13;3.75;;;2.05;;
18657;SDS011;9458;50.942;5.074;2022-10-26T06:59:42;2.33;;;1.95;;
18657;SDS011;9458;50.942;5.074;2022-10-26T07:02:13;5.68;;;2.00;;
18657;SDS011;9458;50.942;5.074;2022-10-26T07:04:41;6.28;;;2.20;;
18657;SDS011;9458;50.942;5.074;2022-10-26T07:07:09;3.75;;;2.10;;
18657;SDS011;9458;50.942;5.074;2022-10-26T07:09:41;2.65;;;2.00;;
18657;SDS011;9458;50.942;5.074;2022-10-26T07:12:08;4.70;;;1.80;;
18657;SDS011;9458;50.942;5.074;2022-10-26T07:14:36;3.15;;;1.70;;
18657;SDS011;9458;50.942;5.074;2022-10-26T07:17:03;6.63;;;1.70;;
18657;SDS011;9458;50.942;5.074;2022-10-26T07:19:33;4.85;;;1.70;;
18657;SDS011;9458;50.942;5.074;2022-10-26T07:22:01;3.33;;;1.63;;
18657;SDS011;9458;50.942;5.074;2022-10-26T07:24:29;2.47;;;1.80;;
18657;SDS011;9458;50.942;5.074;2022-10-26T07:27:02;4.88;;;2.03;;
18657;SDS011;9458;50.942;5.074;2022-10-26T07:29:29;4.97;;;1.95;;
18657;SDS011;9458;50.942;5.074;2022-10-26T07:31:59;3.28;;;1.90;;
18657;SDS011;9458;50.942;5.074;2022-10-26T07:34:29;3.85;;;2.15;;
18657;SDS011;9458;50.942;5.074;2022-10-26T07:36:58;2.95;;;1.80;;
18657;SDS011;9458;50.942;5.074;2022-10-26T07:39:35;4.15;;;1.77;;
18657;SDS011;9458;50.942;5.074;2022-10-26T07:42:15;2.65;;;2.08;;
18657;SDS011;9458;50.942;5.074;2022-10-26T07:44:42;2.90;;;2.05;;
18657;SDS011;9458;50.942;5.074;2022-10-26T07:47:10;3.03;;;1.77;;
18657;SDS011;9458;50.942;5.074;2022-10-26T07:49:37;2.47;;;1.95;;
18657;SDS011;9458;50.942;5.074;2022-10-26T07:52:05;3.83;;;2.40;;
18657;SDS011;9458;50.942;5.074;2022-10-26T07:54:33;5.13;;;2.08;;
18657;SDS011;9458;50.942;5.074;2022-10-26T07:57:00;4.65;;;2.20;;
18657;SDS011;9458;50.942;5.074;2022-10-26T07:59:29;6.07;;;2.15;;
18657;SDS011;9458;50.942;5.074;2022-10-26T08:01:58;4.50;;;2.05;;
18657;SDS011;9458;50.942;5.074;2022-10-26T08:04:25;3.90;;;1.80;;
18657;SDS011;9458;50.942;5.074;2022-10-26T08:06:53;4.45;;;1.90;;
18657;SDS011;9458;50.942;5.074;2022-10-26T08:09:21;4.10;;;2.00;;
18657;SDS011;9458;50.942;5.074;2022-10-26T08:11:48;4.70;;;2.05;;
18657;SDS011;9458;50.942;5.074;2022-10-26T08:14:16;8.95;;;2.00;;
18657;SDS011;9458;50.942;5.074;2022-10-26T08:16:45;2.42;;;1.98;;
18657;SDS011;9458;50.942;5.074;2022-10-26T08:19:16;5.75;;;2.30;;
18657;SDS011;9458;50.942;5.074;2022-10-26T08:21:44;3.40;;;1.90;;
18657;SDS011;9458;50.942;5.074;2022-10-26T08:24:12;5.25;;;1.80;;
18657;SDS011;9458;50.942;5.074;2022-10-26T08:26:39;2.50;;;1.88;;
18657;SDS011;9458;50.942;5.074;2022-10-26T08:29:07;2.85;;;2.22;;
18657;SDS011;9458;50.942;5.074;2022-10-26T08:31:34;2.58;;;2.00;;
18657;SDS011;9458;50.942;5.074;2022-10-26T08:34:03;3.70;;;1.90;;
18657;SDS011;9458;50.942;5.074;2022-10-26T08:36:31;2.40;;;1.85;;
18657;SDS011;9458;50.942;5.074;2022-10-26T08:38:59;2.17;;;1.92;;
18657;SDS011;9458;50.942;5.074;2022-10-26T08:41:30;1.83;;;1.63;;
18657;SDS011;9458;50.942;5.074;2022-10-26T08:44:03;2.67;;;1.70;;
18657;SDS011;9458;50.942;5.074;2022-10-26T08:46:43;3.38;;;1.90;;
18657;SDS011;9458;50.942;5.074;2022-10-26T08:49:17;4.47;;;2.00;;
18657;SDS011;9458;50.942;5.074;2022-10-26T08:51:48;5.03;;;1.90;;
18657;SDS011;9458;50.942;5.074;2022-10-26T08:54:21;2.88;;;1.98;;
18657;SDS011;9458;50.942;5.074;2022-10-26T08:56:58;2.65;;;2.08;;
18657;SDS011;9458;50.942;5.074;2022-10-26T08:59:29;3.58;;;1.80;;
18657;SDS011;9458;50.942;5.074;2022-10-26T09:02:01;5.00;;;1.88;;
18657;SDS011;9458;50.942;5.074;2022-10-26T09:04:30;3.80;;;2.00;;
18657;SDS011;9458;50.942;5.074;2022-10-26T09:06:59;4.75;;;2.03;;
18657;SDS011;9458;50.942;5.074;2022-10-26T09:09:34;6.50;;;2.03;;
18657;SDS011;9458;50.942;5.074;2022-10-26T09:12:08;4.70;;;1.83;;
18657;SDS011;9458;50.942;5.074;2022-10-26T09:14:43;4.85;;;2.13;;
18657;SDS011;9458;50.942;5.074;2022-10-26T09:17:24;5.18;;;1.77;;
18657;SDS011;9458;50.942;5.074;2022-10-26T09:20:11;4.65;;;1.90;;
18657;SDS011;9458;50.942;5.074;2022-10-26T09:22:52;3.97;;;1.55;;
18657;SDS011;9458;50.942;5.074;2022-10-26T09:25:25;4.25;;;1.90;;
18657;SDS011;9458;50.942;5.074;2022-10-26T09:27:59;6.43;;;1.95;;
18657;SDS011;9458;50.942;5.074;2022-10-26T09:30:27;4.75;;;2.03;;
18657;SDS011;9458;50.942;5.074;2022-10-26T09:33:15;2.95;;;1.92;;
18657;SDS011;9458;50.942;5.074;2022-10-26T09:36:05;1.92;;;1.40;;
18657;SDS011;9458;50.942;5.074;2022-10-26T09:38:55;4.07;;;1.67;;
18657;SDS011;9458;50.942;5.074;2022-10-26T09:41:47;32.00;;;2.92;;
18657;SDS011;9458;50.942;5.074;2022-10-26T09:44:39;27.55;;;2.70;;
18657;SDS011;9458;50.942;5.074;2022-10-26T09:47:17;5.90;;;1.67;;
18657;SDS011;9458;50.942;5.074;2022-10-26T09:50:16;4.30;;;1.80;;
18657;SDS011;9458;50.942;5.074;2022-10-26T09:53:07;2.78;;;1.77;;
18657;SDS011;9458;50.942;5.074;2022-10-26T09:55:38;4.22;;;1.65;;
18657;SDS011;9458;50.942;5.074;2022-10-26T09:58:12;5.85;;;1.98;;
18657;SDS011;9458;50.942;5.074;2022-10-26T10:00:43;3.13;;;1.77;;
18657;SDS011;9458;50.942;5.074;2022-10-26T10:03:18;1.65;;;1.27;;
18657;SDS011;9458;50.942;5.074;2022-10-26T10:06:16;10.80;;;2.20;;
18657;SDS011;9458;50.942;5.074;2022-10-26T10:09:06;2.17;;;1.30;;
18657;SDS011;9458;50.942;5.074;2022-10-26T10:11:57;3.47;;;1.25;;
18657;SDS011;9458;50.942;5.074;2022-10-26T10:14:28;2.53;;;1.40;;
18657;SDS011;9458;50.942;5.074;2022-10-26T10:16:58;5.43;;;1.60;;
18657;SDS011;9458;50.942;5.074;2022-10-26T10:19:27;2.65;;;1.33;;
18657;SDS011;9458;50.942;5.074;2022-10-26T10:22:20;3.25;;;1.13;;
18657;SDS011;9458;50.942;5.074;2022-10-26T10:24:59;3.45;;;1.17;;
18657;SDS011;9458;50.942;5.074;2022-10-26T10:27:28;2.38;;;1.20;;
18657;SDS011;9458;50.942;5.074;2022-10-26T10:29:57;2.08;;;1.10;;
18657;SDS011;9458;50.942;5.074;2022-10-26T10:32:45;6.55;;;1.42;;
18657;SDS011;9458;50.942;5.074;2022-10-26T10:35:21;2.80;;;1.30;;
18657;SDS011;9458;50.942;5.074;2022-10-26T10:37:50;1.75;;;0.90;;
18657;SDS011;9458;50.942;5.074;2022-10-26T10:40:19;3.60;;;1.50;;
18657;SDS011;9458;50.942;5.074;2022-10-26T10:42:49;3.13;;;1.42;;
18657;SDS011;9458;50.942;5.074;2022-10-26T10:45:19;4.07;;;1.30;;
18657;SDS011;9458;50.942;5.074;2022-10-26T10:47:56;3.40;;;1.20;;
18657;SDS011;9458;50.942;5.074;2022-10-26T10:50:27;1.65;;;1.17;;
18657;SDS011;9458;50.942;5.074;2022-10-26T10:55:46;1.88;;;1.20;;
18657;SDS011;9458;50.942;5.074;2022-10-26T10:58:26;2.00;;;1.10;;
18657;SDS011;9458;50.942;5.074;2022-10-26T11:00:59;3.10;;;1.38;;
18657;SDS011;9458;50.942;5.074;2022-10-26T11:03:31;3.28;;;1.27;;
18657;SDS011;9458;50.942;5.074;2022-10-26T11:06:10;3.55;;;1.50;;
18657;SDS011;9458;50.942;5.074;2022-10-26T11:08:43;6.40;;;1.60;;
18657;SDS011;9458;50.942;5.074;2022-10-26T11:11:16;4.20;;;1.50;;
18657;SDS011;9458;50.942;5.074;2022-10-26T11:13:51;4.80;;;1.23;;
18657;SDS011;9458;50.942;5.074;2022-10-26T11:16:23;2.08;;;0.95;;
18657;SDS011;9458;50.942;5.074;2022-10-26T11:18:55;4.90;;;1.42;;
18657;SDS011;9458;50.942;5.074;2022-10-26T11:21:27;3.92;;;1.30;;
18657;SDS011;9458;50.942;5.074;2022-10-26T11:24:01;2.60;;;1.30;;
18657;SDS011;9458;50.942;5.074;2022-10-26T11:26:40;3.20;;;1.10;;
18657;SDS011;9458;50.942;5.074;2022-10-26T11:29:16;4.57;;;1.20;;
18657;SDS011;9458;50.942;5.074;2022-10-26T11:31:50;2.97;;;1.05;;
18657;SDS011;9458;50.942;5.074;2022-10-26T11:34:24;1.95;;;0.95;;
18657;SDS011;9458;50.942;5.074;2022-10-26T11:36:57;2.05;;;1.00;;
18657;SDS011;9458;50.942;5.074;2022-10-26T11:39:33;1.92;;;0.98;;
18657;SDS011;9458;50.942;5.074;2022-10-26T11:42:10;1.65;;;1.00;;
18657;SDS011;9458;50.942;5.074;2022-10-26T11:44:48;1.67;;;1.10;;
18657;SDS011;9458;50.942;5.074;2022-10-26T11:47:22;3.90;;;1.10;;
18657;SDS011;9458;50.942;5.074;2022-10-26T11:49:56;4.28;;;1.10;;
18657;SDS011;9458;50.942;5.074;2022-10-26T11:52:29;2.40;;;0.82;;
18657;SDS011;9458;50.942;5.074;2022-10-26T11:55:03;2.05;;;0.90;;
18657;SDS011;9458;50.942;5.074;2022-10-26T11:57:32;2.75;;;1.00;;
18657;SDS011;9458;50.942;5.074;2022-10-26T12:00:03;2.47;;;1.10;;
18657;SDS011;9458;50.942;5.074;2022-10-26T12:02:31;2.13;;;1.00;;
18657;SDS011;9458;50.942;5.074;2022-10-26T12:05:05;2.33;;;1.00;;
18657;SDS011;9458;50.942;5.074;2022-10-26T12:07:45;2.35;;;1.10;;
18657;SDS011;9458;50.942;5.074;2022-10-26T12:10:20;3.40;;;0.90;;
18657;SDS011;9458;50.942;5.074;2022-10-26T12:12:55;3.80;;;1.38;;
18657;SDS011;9458;50.942;5.074;2022-10-26T12:15:28;4.32;;;1.23;;
18657;SDS011;9458;50.942;5.074;2022-10-26T12:18:03;3.60;;;1.10;;
18657;SDS011;9458;50.942;5.074;2022-10-26T12:23:31;3.88;;;1.20;;
18657;SDS011;9458;50.942;5.074;2022-10-26T12:29:33;2.13;;;1.38;;
18657;SDS011;9458;50.942;5.074;2022-10-26T12:32:03;3.88;;;1.15;;
18657;SDS011;9458;50.942;5.074;2022-10-26T12:34:57;2.05;;;1.42;;
18657;SDS011;9458;50.942;5.074;2022-10-26T12:37:36;2.88;;;1.40;;
18657;SDS011;9458;50.942;5.074;2022-10-26T12:52:42;1.90;;;1.23;;
18657;SDS011;9458;50.942;5.074;2022-10-26T13:07:22;5.68;;;1.38;;
18657;SDS011;9458;50.942;5.074;2022-10-26T13:10:00;1.92;;;1.08;;
18657;SDS011;9458;50.942;5.074;2022-10-26T13:12:35;1.73;;;1.00;;
18657;SDS011;9458;50.942;5.074;2022-10-26T13:15:18;3.08;;;0.95;;
18657;SDS011;9458;50.942;5.074;2022-10-26T13:17:51;3.75;;;1.30;;
18657;SDS011;9458;50.942;5.074;2022-10-26T13:20:21;4.32;;;1.20;;
18657;SDS011;9458;50.942;5.074;2022-10-26T13:22:49;4.43;;;1.35;;
18657;SDS011;9458;50.942;5.074;2022-10-26T13:25:20;4.45;;;1.20;;
18657;SDS011;9458;50.942;5.074;2022-10-26T13:27:57;3.03;;;1.23;;
18657;SDS011;9458;50.942;5.074;2022-10-26T13:33:25;5.47;;;1.33;;
18657;SDS011;9458;50.942;5.074;2022-10-26T13:36:00;3.00;;;1.35;;
18657;SDS011;9458;50.942;5.074;2022-10-26T13:38:32;3.38;;;1.33;;
18657;SDS011;9458;50.942;5.074;2022-10-26T13:41:09;4.95;;;1.80;;
18657;SDS011;9458;50.942;5.074;2022-10-26T13:43:45;4.70;;;1.30;;
18657;SDS011;9458;50.942;5.074;2022-10-26T13:46:19;4.85;;;1.20;;
18657;SDS011;9458;50.942;5.074;2022-10-26T13:48:50;3.58;;;1.38;;
18657;SDS011;9458;50.942;5.074;2022-10-26T13:51:31;2.78;;;1.38;;
18657;SDS011;9458;50.942;5.074;2022-10-26T13:54:06;3.05;;;1.30;;
18657;SDS011;9458;50.942;5.074;2022-10-26T13:59:40;4.28;;;1.42;;
18657;SDS011;9458;50.942;5.074;2022-10-26T14:02:15;2.53;;;1.10;;
18657;SDS011;9458;50.942;5.074;2022-10-26T14:04:45;3.38;;;1.50;;
18657;SDS011;9458;50.942;5.074;2022-10-26T14:07:15;3.03;;;1.20;;
18657;SDS011;9458;50.942;5.074;2022-10-26T14:09:49;4.20;;;1.17;;
18657;SDS011;9458;50.942;5.074;2022-10-26T14:12:19;4.10;;;1.65;;
18657;SDS011;9458;50.942;5.074;2022-10-26T14:14:46;1.65;;;1.02;;
18657;SDS011;9458;50.942;5.074;2022-10-26T14:17:17;3.85;;;1.20;;
18657;SDS011;9458;50.942;5.074;2022-10-26T14:19:45;2.22;;;1.10;;
18657;SDS011;9458;50.942;5.074;2022-10-26T14:22:17;3.78;;;1.50;;
18657;SDS011;9458;50.942;5.074;2022-10-26T14:24:50;2.75;;;1.17;;
18657;SDS011;9458;50.942;5.074;2022-10-26T14:27:21;2.00;;;1.10;;
18657;SDS011;9458;50.942;5.074;2022-10-26T14:29:50;2.52;;;0.82;;
18657;SDS011;9458;50.942;5.074;2022-10-26T14:32:26;6.22;;;1.60;;
18657;SDS011;9458;50.942;5.074;2022-10-26T14:34:56;1.85;;;1.17;;
18657;SDS011;9458;50.942;5.074;2022-10-26T14:37:27;3.15;;;1.02;;
18657;SDS011;9458;50.942;5.074;2022-10-26T14:40:02;2.30;;;0.80;;
18657;SDS011;9458;50.942;5.074;2022-10-26T14:42:37;2.88;;;1.00;;
18657;SDS011;9458;50.942;5.074;2022-10-26T14:45:17;3.92;;;1.10;;
18657;SDS011;9458;50.942;5.074;2022-10-26T14:47:49;3.08;;;1.00;;
18657;SDS011;9458;50.942;5.074;2022-10-26T14:50:20;1.48;;;1.05;;
18657;SDS011;9458;50.942;5.074;2022-10-26T14:52:52;2.53;;;1.10;;
18657;SDS011;9458;50.942;5.074;2022-10-26T14:55:22;3.70;;;1.25;;
18657;SDS011;9458;50.942;5.074;2022-10-26T14:57:52;3.38;;;1.23;;
18657;SDS011;9458;50.942;5.074;2022-10-26T15:00:33;3.70;;;1.05;;
18657;SDS011;9458;50.942;5.074;2022-10-26T15:03:00;2.95;;;1.10;;
18657;SDS011;9458;50.942;5.074;2022-10-26T15:05:28;2.40;;;1.00;;
18657;SDS011;9458;50.942;5.074;2022-10-26T15:07:57;1.83;;;0.98;;
18657;SDS011;9458;50.942;5.074;2022-10-26T15:10:44;4.30;;;1.10;;
18657;SDS011;9458;50.942;5.074;2022-10-26T15:13:23;1.73;;;1.00;;
18657;SDS011;9458;50.942;5.074;2022-10-26T15:15:55;4.35;;;0.93;;
18657;SDS011;9458;50.942;5.074;2022-10-26T15:18:25;4.40;;;1.40;;
18657;SDS011;9458;50.942;5.074;2022-10-26T15:20:54;7.20;;;1.45;;
18657;SDS011;9458;50.942;5.074;2022-10-26T15:23:23;2.58;;;0.80;;
18657;SDS011;9458;50.942;5.074;2022-10-26T15:25:52;3.40;;;1.08;;
18657;SDS011;9458;50.942;5.074;2022-10-26T15:28:24;6.32;;;1.50;;
18657;SDS011;9458;50.942;5.074;2022-10-26T15:31:02;3.10;;;1.08;;
18657;SDS011;9458;50.942;5.074;2022-10-26T15:33:32;4.13;;;1.30;;
18657;SDS011;9458;50.942;5.074;2022-10-26T15:36:13;1.73;;;1.10;;
18657;SDS011;9458;50.942;5.074;2022-10-26T15:38:41;4.70;;;1.20;;
18657;SDS011;9458;50.942;5.074;2022-10-26T15:41:14;4.72;;;1.05;;
18657;SDS011;9458;50.942;5.074;2022-10-26T15:43:47;5.60;;;1.02;;
18657;SDS011;9458;50.942;5.074;2022-10-26T15:46:15;1.55;;;0.95;;
18657;SDS011;9458;50.942;5.074;2022-10-26T15:48:43;2.60;;;1.27;;
18657;SDS011;9458;50.942;5.074;2022-10-26T15:51:15;5.38;;;1.20;;
18657;SDS011;9458;50.942;5.074;2022-10-26T15:53:43;2.35;;;1.00;;
18657;SDS011;9458;50.942;5.074;2022-10-26T15:56:12;2.95;;;1.10;;
18657;SDS011;9458;50.942;5.074;2022-10-26T15:58:41;3.42;;;1.10;;
18657;SDS011;9458;50.942;5.074;2022-10-26T16:01:10;2.22;;;1.10;;
18657;SDS011;9458;50.942;5.074;2022-10-26T16:03:41;2.75;;;1.10;;
18657;SDS011;9458;50.942;5.074;2022-10-26T16:06:11;3.08;;;1.17;;
18657;SDS011;9458;50.942;5.074;2022-10-26T16:08:40;4.20;;;1.27;;
18657;SDS011;9458;50.942;5.074;2022-10-26T16:11:11;2.60;;;1.10;;
18657;SDS011;9458;50.942;5.074;2022-10-26T16:13:38;4.45;;;1.48;;